首页
METAR-TAF:

METAR-TAF

机场 :

Billy Mitchell Airport

Hatteras, 北卡罗来纳州, 美国

纬度: 35-13-56N, 经度: 075-37-21W, 海拔: 5米

当前天气观测

该预报发布于58分钟前的17:51 UTC
风速3节,风向北转西北
温度 18°C
湿度 73%
气压 1021 hPa
能見度: 16.1公里
散云层高于6000英尺

METAR: KHSE 181751Z AUTO 33003KT 10SM SCT060 18/13 A3016 RMK AO2 SLP213 T01830133 10206 20122 58017

时间: 13:49 (18:49 UTC)


TAF: 丢失

超过4000个机场的气象观测和天气预报(METAR&TAF报告)。

可查询的气象台以黄色和红色小点在地图上表示。

将鼠标移到小点上方,可查看气象台名称。

然后点击查看天气观测和预报。

如需切换地图:点击带黑十字的绿色按钮放大地图;点击带横线的绿色按钮缩小地图;或者点击绿色箭头查看邻近地区的地图。


METAR-TAF: